Monroe, Massachusetts
Current Conditions -  °F | °C
As of 12:52 PM on Tuesday 21 Oct 2014 (Local Time) from KAQW Reporting Station
Overcast Overcast  
Wind Chill: 50°   Ceiling: 5000
Heat Index: 50°   Visibility: 10mi
Dew Point: 47°   Wind: 0mph
Humidity: 89%   Direction: NA
Pressure: 29.94"   Gusts: NA
Location:  42.7226°N, 72.9829°W
Report Text: KAQW 211652Z AUTO 00000KT 10SM BKN050 OVC060 10/08 A2994 RMK AO2 RAE26 SLP141 P0002 T01000083
Loading
Personal Weather Stations






























Interactive Weather Map
Tropical Storm Tracking
New forecast layout! Learn more

10-Day Weather Forecast

Advertisements
Track Severe Weather on mobile